createdAt,value
2023-05-22T00:01:06.632Z,64.20
2023-05-22T00:03:36.484Z,64.90
2023-05-22T00:06:10.201Z,64.30
2023-05-22T00:08:38.477Z,63.03
2023-05-22T00:11:06.538Z,63.40
2023-05-22T00:13:34.610Z,63.70
2023-05-22T00:16:03.089Z,65.27
2023-05-22T00:18:31.161Z,61.93
2023-05-22T00:20:59.369Z,63.20
2023-05-22T00:23:29.982Z,62.70
2023-05-22T00:25:58.316Z,63.53
2023-05-22T00:28:26.706Z,64.30
2023-05-22T00:30:54.868Z,65.77
2023-05-22T00:33:23.036Z,67.80
2023-05-22T00:35:51.330Z,68.20
2023-05-22T00:38:32.769Z,68.37
2023-05-22T00:41:01.751Z,69.40
2023-05-22T00:43:30.404Z,71.00
2023-05-22T00:45:59.068Z,73.57
2023-05-22T00:48:27.394Z,77.57
2023-05-22T00:50:58.269Z,77.77
2023-05-22T00:53:28.668Z,79.60
2023-05-22T00:55:59.583Z,81.90
2023-05-22T00:58:28.561Z,81.27
2023-05-22T01:00:57.340Z,83.17
2023-05-22T01:03:27.409Z,83.37
2023-05-22T01:05:56.664Z,85.20
2023-05-22T01:08:24.995Z,82.23
2023-05-22T01:10:59.495Z,80.30
2023-05-22T01:13:34.235Z,81.20
2023-05-22T01:16:11.953Z,79.87
2023-05-22T01:18:47.730Z,79.70
2023-05-22T01:21:24.904Z,83.17
2023-05-22T01:24:26.537Z,81.20
2023-05-22T01:27:14.755Z,82.80
2023-05-22T01:29:52.324Z,86.77
2023-05-22T01:32:24.333Z,84.00
2023-05-22T01:34:56.185Z,86.60
2023-05-22T01:37:25.367Z,88.10
2023-05-22T01:39:54.075Z,90.83
2023-05-22T01:42:22.435Z,91.23
2023-05-22T01:44:50.593Z,92.13
2023-05-22T01:47:19.078Z,95.40
2023-05-22T01:49:48.502Z,95.03
2023-05-22T01:52:22.759Z,98.80
2023-05-22T01:54:58.266Z,99.77
2023-05-22T01:57:31.918Z,100.33
2023-05-22T02:00:07.364Z,101.40
2023-05-22T02:02:38.901Z,100.97
2023-05-22T02:05:12.596Z,98.10
2023-05-22T02:07:42.916Z,100.03
2023-05-22T02:10:12.311Z,96.60
2023-05-22T02:12:40.758Z,97.63
2023-05-22T02:15:09.978Z,98.90
2023-05-22T02:17:40.865Z,97.27
2023-05-22T02:20:14.558Z,98.50
2023-05-22T02:22:44.234Z,99.20
2023-05-22T02:25:15.147Z,99.37
2023-05-22T02:27:43.909Z,100.83
2023-05-22T02:30:13.526Z,100.93
2023-05-22T02:32:43.502Z,100.90
2023-05-22T02:35:13.098Z,99.60
2023-05-22T02:37:41.208Z,98.17
2023-05-22T02:40:11.047Z,100.80
2023-05-22T02:42:39.236Z,99.80
2023-05-22T02:45:08.581Z,101.57
2023-05-22T02:47:36.742Z,103.90
2023-05-22T02:50:05.298Z,104.00
2023-05-22T02:52:35.147Z,104.33
2023-05-22T02:55:04.296Z,108.40
2023-05-22T02:57:32.546Z,108.60
2023-05-22T03:00:01.592Z,109.67
2023-05-22T03:02:32.408Z,110.57
2023-05-22T03:05:00.765Z,110.50
2023-05-22T03:07:29.587Z,110.30
2023-05-22T03:09:59.217Z,112.23
2023-05-22T03:12:27.342Z,112.40
2023-05-22T03:14:55.526Z,110.97
2023-05-22T03:17:23.682Z,111.20
2023-05-22T03:19:51.690Z,114.13
2023-05-22T03:22:21.526Z,113.40
2023-05-22T03:24:49.607Z,113.27
2023-05-22T03:27:20.286Z,111.80
2023-05-22T03:29:48.394Z,112.17
2023-05-22T03:32:16.484Z,115.77
2023-05-22T03:34:44.650Z,117.97
2023-05-22T03:37:12.710Z,118.80
2023-05-22T03:39:40.804Z,117.13
2023-05-22T03:42:08.987Z,117.90
2023-05-22T03:44:38.463Z,117.60
2023-05-22T03:47:06.881Z,120.40
2023-05-22T03:49:35.020Z,118.23
2023-05-22T03:52:03.900Z,119.30
2023-05-22T03:54:31.954Z,113.67
2023-05-22T03:57:00.034Z,114.23
2023-05-22T03:59:28.167Z,112.73
2023-05-22T04:01:57.955Z,111.07
2023-05-22T04:04:26.875Z,107.33
2023-05-22T04:06:58.203Z,110.17
2023-05-22T04:09:28.251Z,107.23
2023-05-22T04:11:56.511Z,104.83
2023-05-22T04:14:24.676Z,101.87
2023-05-22T04:16:52.905Z,100.27
2023-05-22T04:19:22.750Z,98.50
2023-05-22T04:21:51.122Z,98.97
2023-05-22T04:24:19.265Z,95.57
2023-05-22T04:26:47.998Z,95.00
2023-05-22T04:29:16.541Z,93.53
2023-05-22T04:31:44.793Z,94.40
2023-05-22T04:34:13.698Z,90.10
2023-05-22T04:36:45.232Z,92.03
2023-05-22T04:39:14.167Z,95.00
2023-05-22T04:41:42.865Z,94.17
2023-05-22T04:44:10.893Z,96.63
2023-05-22T04:46:39.517Z,94.90
2023-05-22T04:49:08.581Z,92.53
2023-05-22T04:51:36.676Z,90.57
2023-05-22T04:54:06.280Z,92.40
2023-05-22T04:56:36.834Z,92.80
2023-05-22T04:59:08.862Z,92.00
2023-05-22T05:01:37.994Z,86.70
2023-05-22T05:04:06.550Z,88.47
2023-05-22T05:06:35.921Z,84.70
2023-05-22T05:09:05.630Z,81.77
2023-05-22T05:11:33.917Z,80.07
2023-05-22T05:14:02.053Z,77.80
2023-05-22T05:16:30.278Z,79.37
2023-05-22T05:18:58.403Z,76.57
2023-05-22T05:21:27.981Z,79.93
2023-05-22T05:23:56.381Z,84.57
2023-05-22T05:26:27.122Z,80.40
2023-05-22T05:28:56.667Z,76.07
2023-05-22T05:31:25.020Z,75.10
2023-05-22T05:33:53.194Z,72.03
2023-05-22T05:36:21.390Z,68.90
2023-05-22T05:38:49.653Z,70.80
2023-05-22T05:41:19.085Z,67.90
2023-05-22T05:43:49.293Z,61.00
2023-05-22T05:46:17.749Z,61.50
2023-05-22T05:48:47.365Z,58.33
2023-05-22T05:51:16.036Z,55.57
2023-05-22T05:53:44.061Z,54.20
2023-05-22T05:56:12.465Z,48.13
2023-05-22T05:58:40.585Z,50.03
2023-05-22T06:01:10.094Z,45.53
2023-05-22T06:03:38.514Z,45.13
2023-05-22T06:06:07.430Z,46.53
2023-05-22T06:08:35.548Z,53.13
2023-05-22T06:11:03.786Z,42.50
2023-05-22T06:13:31.916Z,40.17
2023-05-22T06:16:02.760Z,40.13
2023-05-22T06:18:34.442Z,43.00
2023-05-22T06:21:02.959Z,43.40
2023-05-22T06:23:32.496Z,40.53
2023-05-22T06:26:00.646Z,38.93
2023-05-22T06:28:28.992Z,37.27
2023-05-22T06:30:57.952Z,34.90
2023-05-22T06:33:26.253Z,34.03
2023-05-22T06:35:55.817Z,34.07
2023-05-22T06:38:23.879Z,33.00
2023-05-22T06:40:51.896Z,30.63
2023-05-22T06:43:19.932Z,29.53
2023-05-22T06:45:47.964Z,27.80
2023-05-22T06:48:16.152Z,28.63
2023-05-22T06:50:44.122Z,29.80
2023-05-22T06:53:13.417Z,26.53
2023-05-22T06:55:41.975Z,25.77
2023-05-22T06:58:10.002Z,26.30
2023-05-22T07:00:38.265Z,28.27
2023-05-22T07:03:07.230Z,26.67
2023-05-22T07:05:35.329Z,24.60
2023-05-22T07:08:03.366Z,24.50
2023-05-22T07:10:32.677Z,25.33
2023-05-22T07:13:00.681Z,25.23
2023-05-22T07:15:28.603Z,27.13
2023-05-22T07:17:56.866Z,23.50
2023-05-22T07:20:26.845Z,24.33
2023-05-22T07:22:54.976Z,22.53
2023-05-22T07:25:24.121Z,23.63
2023-05-22T07:27:53.762Z,23.27
2023-05-22T07:30:21.878Z,23.53
2023-05-22T07:32:50.017Z,25.03
2023-05-22T07:35:18.333Z,23.10
2023-05-22T07:37:46.387Z,23.77
2023-05-22T07:40:14.772Z,22.33
2023-05-22T07:42:43.022Z,22.77
2023-05-22T07:45:13.053Z,21.57
2023-05-22T07:47:41.316Z,21.83
2023-05-22T07:50:10.333Z,21.87
2023-05-22T07:52:38.387Z,21.37
2023-05-22T07:55:08.479Z,21.57
2023-05-22T07:57:36.734Z,20.97
2023-05-22T08:00:13.717Z,21.77
2023-05-22T08:02:43.927Z,22.00
2023-05-22T08:05:12.539Z,22.33
2023-05-22T08:07:41.488Z,21.50
2023-05-22T08:10:15.986Z,22.77
2023-05-22T08:12:44.554Z,22.70
2023-05-22T08:15:13.218Z,66.30
2023-05-22T08:17:41.558Z,21.70
2023-05-22T08:20:12.553Z,20.70
2023-05-22T08:22:41.425Z,21.57
2023-05-22T08:25:10.523Z,22.40
2023-05-22T08:27:38.710Z,22.43
2023-05-22T08:30:08.192Z,22.60
2023-05-22T08:32:36.527Z,22.77
2023-05-22T08:35:05.096Z,21.30
2023-05-22T08:37:34.741Z,21.67
2023-05-22T08:40:03.542Z,21.87
2023-05-22T08:42:31.763Z,22.33
2023-05-22T08:45:01.147Z,22.67
2023-05-22T08:47:30.845Z,21.90
2023-05-22T08:50:00.417Z,23.53
2023-05-22T08:52:36.247Z,22.33
2023-05-22T08:55:06.189Z,22.57
2023-05-22T08:57:35.220Z,21.27
2023-05-22T09:00:04.257Z,21.30
2023-05-22T09:02:33.172Z,21.67
2023-05-22T09:05:05.354Z,21.17
2023-05-22T09:07:35.214Z,20.47
2023-05-22T09:10:05.809Z,20.97
2023-05-22T09:12:34.290Z,20.97
2023-05-22T09:15:10.383Z,21.70
2023-05-22T09:17:40.638Z,20.80
2023-05-22T09:20:13.278Z,21.63
2023-05-22T09:22:42.876Z,21.30
2023-05-22T09:25:14.069Z,19.33
2023-05-22T09:27:46.247Z,20.13
2023-05-22T09:30:17.954Z,19.90
2023-05-22T09:32:46.901Z,20.93
2023-05-22T09:35:15.488Z,20.20
2023-05-22T09:37:45.370Z,21.70
2023-05-22T09:40:14.795Z,35.17
2023-05-22T09:42:46.017Z,19.93
2023-05-22T09:45:14.298Z,21.30
2023-05-22T09:47:42.472Z,21.20
2023-05-22T09:50:11.425Z,22.00
2023-05-22T09:52:39.734Z,21.33
2023-05-22T09:55:11.196Z,21.27
2023-05-22T09:57:44.249Z,20.33
2023-05-22T10:00:18.099Z,20.20
2023-05-22T10:02:48.511Z,20.37
2023-05-22T10:05:21.928Z,20.47
2023-05-22T10:07:52.031Z,18.57
2023-05-22T10:10:23.069Z,20.73
2023-05-22T10:12:54.320Z,20.00
2023-05-22T10:15:22.912Z,20.47
2023-05-22T10:17:51.444Z,20.97
2023-05-22T10:20:20.928Z,20.13
2023-05-22T10:22:50.007Z,20.43
2023-05-22T10:25:19.286Z,19.50
2023-05-22T10:27:49.863Z,21.07
2023-05-22T10:30:24.915Z,20.47
2023-05-22T10:32:58.508Z,18.87
2023-05-22T10:35:33.472Z,19.03
2023-05-22T10:38:16.043Z,18.90
2023-05-22T10:40:48.230Z,20.20
2023-05-22T10:43:18.216Z,20.60
2023-05-22T10:45:48.171Z,19.63
2023-05-22T10:48:16.416Z,21.67
2023-05-22T10:50:53.625Z,21.53
2023-05-22T10:53:24.802Z,19.60
2023-05-22T10:55:56.934Z,20.83
2023-05-22T10:58:30.827Z,20.80
2023-05-22T11:01:15.648Z,43.63
2023-05-22T11:03:54.540Z,20.43
2023-05-22T11:06:39.575Z,19.30
2023-05-22T11:09:30.686Z,20.83
2023-05-22T11:12:24.852Z,21.33
2023-05-22T11:14:56.295Z,21.67
2023-05-22T11:17:26.987Z,20.30
2023-05-22T11:20:06.305Z,19.83
2023-05-22T11:22:40.009Z,19.90
2023-05-22T11:25:13.039Z,20.07
2023-05-22T11:27:42.425Z,20.23
2023-05-22T11:30:16.343Z,21.13
2023-05-22T11:32:46.306Z,20.23
2023-05-22T11:35:17.174Z,20.30
2023-05-22T11:37:45.698Z,21.20
2023-05-22T11:40:16.958Z,20.87
2023-05-22T11:42:45.769Z,20.33
2023-05-22T11:45:16.168Z,20.53
2023-05-22T11:47:44.880Z,20.53
2023-05-22T11:50:15.098Z,20.53
2023-05-22T11:52:46.712Z,21.70
2023-05-22T11:55:14.956Z,20.70
2023-05-22T11:57:43.265Z,20.73
2023-05-22T12:00:12.373Z,21.17
2023-05-22T12:02:47.467Z,21.30
2023-05-22T12:05:16.607Z,21.13
2023-05-22T12:07:45.154Z,19.73
2023-05-22T12:10:15.299Z,21.17
2023-05-22T12:12:46.244Z,20.97
2023-05-22T12:15:15.211Z,21.27
2023-05-22T12:17:44.769Z,20.00
2023-05-22T12:20:14.527Z,21.53
2023-05-22T12:22:44.074Z,21.83
2023-05-22T12:25:17.608Z,20.63
2023-05-22T12:27:46.256Z,20.43
2023-05-22T12:30:15.642Z,21.77
2023-05-22T12:32:51.434Z,20.20
2023-05-22T12:35:20.265Z,19.87
2023-05-22T12:37:51.883Z,21.27
2023-05-22T12:40:20.502Z,20.90
2023-05-22T12:42:49.929Z,20.47
2023-05-22T12:45:18.721Z,20.10
2023-05-22T12:47:47.344Z,20.97
2023-05-22T12:50:17.348Z,20.00
2023-05-22T12:52:45.504Z,19.07
2023-05-22T12:55:13.821Z,20.20
2023-05-22T12:57:41.953Z,19.43
2023-05-22T13:00:11.291Z,20.50
2023-05-22T13:02:39.867Z,20.00
2023-05-22T13:05:08.622Z,19.50
2023-05-22T13:07:38.223Z,18.80
2023-05-22T13:10:07.460Z,19.67
2023-05-22T13:12:35.725Z,19.60
2023-05-22T13:15:04.136Z,19.17
2023-05-22T13:17:32.386Z,19.17
2023-05-22T13:20:00.705Z,19.63
2023-05-22T13:22:28.942Z,20.07
2023-05-22T13:24:58.573Z,19.07
2023-05-22T13:27:27.516Z,19.80
2023-05-22T13:29:55.838Z,19.10
2023-05-22T13:32:24.023Z,19.83
2023-05-22T13:34:52.173Z,18.60
2023-05-22T13:37:20.687Z,19.03
2023-05-22T13:39:48.912Z,19.67
2023-05-22T13:42:18.580Z,19.90
2023-05-22T13:44:46.925Z,20.17
2023-05-22T13:47:15.240Z,20.67
2023-05-22T13:49:43.803Z,19.83
2023-05-22T13:52:12.051Z,19.03
2023-05-22T13:54:40.364Z,19.97
2023-05-22T13:57:08.651Z,20.87
2023-05-22T13:59:38.432Z,19.83
2023-05-22T14:02:06.771Z,21.03
2023-05-22T14:04:34.987Z,20.67
2023-05-22T14:07:03.279Z,20.07
2023-05-22T14:09:31.508Z,19.30
2023-05-22T14:11:59.634Z,19.40
2023-05-22T14:14:27.730Z,21.23
2023-05-22T14:16:57.392Z,19.20
2023-05-22T14:19:25.674Z,19.87
2023-05-22T14:21:53.943Z,19.70
2023-05-22T14:24:22.055Z,19.10
2023-05-22T14:26:51.212Z,19.20
2023-05-22T14:29:19.367Z,19.60
2023-05-22T14:31:51.475Z,19.80
2023-05-22T14:34:22.100Z,18.53
2023-05-22T14:36:50.157Z,18.90
2023-05-22T14:39:18.252Z,19.20
2023-05-22T14:41:46.598Z,18.43
2023-05-22T14:44:14.748Z,18.87
2023-05-22T14:46:42.948Z,19.37
2023-05-22T14:49:11.252Z,19.53
2023-05-22T14:51:40.828Z,20.57
2023-05-22T14:54:08.936Z,19.97
2023-05-22T14:56:37.009Z,19.50
2023-05-22T14:59:05.814Z,18.83
2023-05-22T15:01:33.934Z,19.87
2023-05-22T15:04:02.057Z,19.93
2023-05-22T15:06:30.136Z,19.30
2023-05-22T15:09:00.258Z,19.37
2023-05-22T15:11:28.446Z,20.27
2023-05-22T15:13:56.575Z,19.50
2023-05-22T15:16:25.989Z,19.53
2023-05-22T15:18:55.044Z,20.40
2023-05-22T15:21:23.815Z,19.30
2023-05-22T15:23:52.047Z,19.33
2023-05-22T15:26:21.660Z,19.43
2023-05-22T15:28:49.982Z,18.80
2023-05-22T15:31:18.135Z,19.23
2023-05-22T15:33:46.668Z,19.10
2023-05-22T15:36:17.122Z,18.90
2023-05-22T15:38:45.374Z,19.07
2023-05-22T15:41:13.773Z,18.63
2023-05-22T15:43:43.580Z,19.17
2023-05-22T15:46:14.612Z,18.70
2023-05-22T15:48:43.093Z,18.60
2023-05-22T15:51:11.350Z,20.10
2023-05-22T15:53:39.635Z,18.77
2023-05-22T15:56:08.497Z,18.90
2023-05-22T15:58:36.914Z,18.47
2023-05-22T16:01:07.846Z,19.43
2023-05-22T16:03:36.308Z,18.80
2023-05-22T16:06:04.794Z,19.47
2023-05-22T16:08:32.917Z,19.30
2023-05-22T16:11:01.699Z,18.87
2023-05-22T16:13:30.025Z,18.93
2023-05-22T16:15:58.187Z,19.73
2023-05-22T16:18:27.727Z,19.17
2023-05-22T16:20:56.922Z,20.33
2023-05-22T16:23:26.227Z,19.67
2023-05-22T16:25:54.375Z,19.30
2023-05-22T16:28:22.570Z,21.50
2023-05-22T16:30:51.774Z,21.60
2023-05-22T16:33:19.878Z,19.53
2023-05-22T16:35:49.464Z,19.00
2023-05-22T16:38:17.985Z,18.40
2023-05-22T16:40:46.482Z,18.83
2023-05-22T16:43:15.147Z,18.40
2023-05-22T16:45:47.666Z,18.40
2023-05-22T16:48:16.359Z,18.53
2023-05-22T16:50:46.800Z,18.20
2023-05-22T16:53:17.313Z,18.80
2023-05-22T16:55:45.689Z,19.00
2023-05-22T16:58:14.048Z,18.13
2023-05-22T17:00:42.459Z,18.20
2023-05-22T17:03:11.948Z,18.47
2023-05-22T17:05:41.242Z,18.20
2023-05-22T17:08:09.857Z,18.00
2023-05-22T17:10:39.374Z,17.40
2023-05-22T17:13:07.745Z,17.50
2023-05-22T17:15:35.959Z,17.70
2023-05-22T17:18:04.813Z,18.00
2023-05-22T17:20:34.485Z,17.27
2023-05-22T17:23:02.553Z,17.47
2023-05-22T17:25:30.664Z,17.60
2023-05-22T17:28:00.198Z,18.40
2023-05-22T17:30:28.354Z,18.37
2023-05-22T17:32:57.783Z,18.00
2023-05-22T17:35:26.553Z,18.50
2023-05-22T17:37:54.795Z,18.80
2023-05-22T17:40:29.527Z,18.80
2023-05-22T17:43:06.348Z,18.50
2023-05-22T17:45:34.474Z,19.20
2023-05-22T17:48:03.784Z,19.27
2023-05-22T17:50:31.934Z,18.30
2023-05-22T17:53:00.126Z,18.63
2023-05-22T17:55:28.371Z,18.87
2023-05-22T17:57:56.645Z,19.03
2023-05-22T18:00:26.194Z,19.53
2023-05-22T18:02:54.501Z,18.80
2023-05-22T18:05:22.786Z,27.13
2023-05-22T18:07:51.205Z,18.97
2023-05-22T18:10:19.498Z,19.40
2023-05-22T18:12:48.656Z,19.20
2023-05-22T18:15:16.746Z,29.63
2023-05-22T18:17:46.307Z,19.40
2023-05-22T18:20:16.612Z,19.30
2023-05-22T18:22:45.214Z,19.27
2023-05-22T18:25:14.046Z,19.20
2023-05-22T18:27:42.195Z,20.37
2023-05-22T18:30:11.054Z,19.17
2023-05-22T18:32:39.167Z,20.53
2023-05-22T18:35:09.600Z,19.77
2023-05-22T18:37:37.925Z,19.47
2023-05-22T18:40:09.340Z,19.23
2023-05-22T18:42:37.488Z,18.90
2023-05-22T18:45:06.725Z,19.60
2023-05-22T18:47:34.883Z,19.23
2023-05-22T18:50:03.470Z,19.67
2023-05-22T18:52:32.961Z,20.00
2023-05-22T18:55:01.048Z,20.53
2023-05-22T18:57:29.122Z,19.60
2023-05-22T18:59:57.243Z,19.40
2023-05-22T19:02:25.417Z,19.93
2023-05-22T19:04:53.704Z,18.90
2023-05-22T19:07:22.114Z,19.80
2023-05-22T19:09:51.739Z,19.03
2023-05-22T19:12:20.963Z,18.90
2023-05-22T19:14:49.720Z,19.00
2023-05-22T19:17:17.881Z,18.33
2023-05-22T19:19:46.711Z,18.43
2023-05-22T19:22:17.852Z,18.77
2023-05-22T19:24:46.292Z,19.00
2023-05-22T19:27:15.799Z,19.53
2023-05-22T19:29:43.943Z,19.40
2023-05-22T19:32:12.179Z,19.20
2023-05-22T19:34:40.248Z,19.90
2023-05-22T19:37:09.315Z,20.10
2023-05-22T19:39:37.455Z,20.23
2023-05-22T19:42:08.157Z,20.40
2023-05-22T19:44:37.876Z,21.93
2023-05-22T19:47:06.442Z,21.40
2023-05-22T19:49:37.006Z,20.17
2023-05-22T19:52:05.905Z,20.67
2023-05-22T19:54:34.178Z,23.60
2023-05-22T19:57:03.104Z,19.70
2023-05-22T19:59:31.194Z,19.77
2023-05-22T20:02:00.739Z,20.30
2023-05-22T20:04:30.400Z,21.45
2023-05-22T20:06:59.333Z,20.83
2023-05-22T20:09:27.516Z,21.83
2023-05-22T20:11:55.616Z,20.97
2023-05-22T20:14:23.779Z,21.80
2023-05-22T20:16:52.093Z,21.50
2023-05-22T20:19:21.720Z,21.40
2023-05-22T20:21:50.809Z,24.87
2023-05-22T20:24:20.998Z,22.07
2023-05-22T20:26:49.376Z,22.00
2023-05-22T20:29:17.948Z,23.00
2023-05-22T20:31:46.851Z,24.07
2023-05-22T20:34:15.584Z,22.60
2023-05-22T20:36:46.557Z,22.90
2023-05-22T20:39:14.880Z,22.10
2023-05-22T20:41:43.165Z,24.00
2023-05-22T20:44:11.362Z,22.50
2023-05-22T20:46:39.440Z,23.50
2023-05-22T20:49:07.589Z,22.20
2023-05-22T20:51:36.826Z,22.40
2023-05-22T20:54:06.702Z,23.17
2023-05-22T20:56:34.826Z,22.00
2023-05-22T20:59:02.937Z,22.33
2023-05-22T21:01:31.477Z,23.17
2023-05-22T21:03:59.733Z,23.00
2023-05-22T21:06:27.859Z,22.70
2023-05-22T21:08:59.725Z,21.77
2023-05-22T21:11:29.335Z,23.53
2023-05-22T21:13:57.455Z,23.20
2023-05-22T21:16:25.758Z,23.00
2023-05-22T21:18:54.023Z,23.20
2023-05-22T21:21:22.235Z,21.87
2023-05-22T21:23:50.826Z,21.63
2023-05-22T21:26:19.080Z,21.27
2023-05-22T21:28:48.865Z,20.87
2023-05-22T21:31:17.050Z,20.20
2023-05-22T21:33:46.548Z,20.97
2023-05-22T21:36:14.689Z,21.67
2023-05-22T21:38:42.890Z,22.87
2023-05-22T21:41:11.743Z,20.70
2023-05-22T21:43:40.161Z,21.87
2023-05-22T21:46:09.872Z,21.27
2023-05-22T21:48:38.092Z,24.00
2023-05-22T21:51:06.776Z,21.20
2023-05-22T21:53:34.953Z,21.83
2023-05-22T21:56:03.064Z,21.70
2023-05-22T21:58:31.241Z,22.00
2023-05-22T22:00:59.446Z,22.93
2023-05-22T22:03:29.209Z,22.13
2023-05-22T22:05:57.437Z,21.73
2023-05-22T22:08:28.233Z,22.50
2023-05-22T22:10:58.325Z,23.03
2023-05-22T22:13:26.427Z,23.10
2023-05-22T22:15:54.977Z,22.80
2023-05-22T22:18:23.192Z,22.90
2023-05-22T22:20:54.153Z,24.20
2023-05-22T22:23:22.853Z,25.73
2023-05-22T22:25:51.187Z,24.50
2023-05-22T22:28:19.273Z,25.33
2023-05-22T22:30:47.957Z,25.60
2023-05-22T22:33:16.127Z,26.00
2023-05-22T22:35:44.379Z,25.87
2023-05-22T22:38:13.884Z,25.10
2023-05-22T22:40:42.140Z,25.87
2023-05-22T22:43:10.588Z,25.13
2023-05-22T22:45:39.847Z,25.23
2023-05-22T22:48:08.388Z,27.17
2023-05-22T22:50:36.545Z,24.93
2023-05-22T22:53:04.739Z,26.43
2023-05-22T22:55:34.229Z,25.60
2023-05-22T22:58:02.958Z,25.63
2023-05-22T23:00:31.140Z,27.47
2023-05-22T23:02:59.407Z,26.60
2023-05-22T23:05:27.815Z,25.47
2023-05-22T23:07:55.884Z,25.60
2023-05-22T23:10:24.000Z,25.07
2023-05-22T23:12:53.541Z,25.00
2023-05-22T23:15:21.860Z,25.33
2023-05-22T23:17:51.808Z,24.90
2023-05-22T23:20:20.072Z,24.43
2023-05-22T23:22:48.180Z,25.30
2023-05-22T23:25:16.345Z,24.30
2023-05-22T23:27:44.492Z,26.63
2023-05-22T23:30:14.562Z,25.23
2023-05-22T23:32:42.746Z,25.27
2023-05-22T23:35:11.235Z,25.43
2023-05-22T23:37:39.368Z,24.63
2023-05-22T23:40:09.136Z,24.90
2023-05-22T23:42:37.420Z,24.00
2023-05-22T23:45:06.304Z,22.80
2023-05-22T23:47:35.802Z,24.50
2023-05-22T23:50:04.100Z,23.13
2023-05-22T23:52:32.171Z,23.00
2023-05-22T23:55:00.783Z,23.07
2023-05-22T23:57:28.912Z,23.93
2023-05-22T23:59:57.035Z,24.83
